createdAt,value
2016-09-28T00:00:29.379Z,1041.28
2016-09-28T00:01:29.373Z,1041.26
2016-09-28T00:02:29.865Z,1041.25
2016-09-28T00:03:29.358Z,1041.27
2016-09-28T00:04:29.655Z,1041.28
2016-09-28T00:05:29.346Z,1041.24
2016-09-28T00:06:29.342Z,1041.28
2016-09-28T00:07:29.335Z,1041.22
2016-09-28T00:08:29.330Z,1041.21
2016-09-28T00:09:29.323Z,1041.15
2016-09-28T00:10:29.315Z,1041.12
2016-09-28T00:11:29.312Z,1041.09
2016-09-28T00:12:29.305Z,1041.11
2016-09-28T00:13:29.300Z,1041.06
2016-09-28T00:14:29.290Z,1041.06
2016-09-28T00:15:29.285Z,1041.09
2016-09-28T00:16:29.279Z,1041.12
2016-09-28T00:17:29.271Z,1041.15
2016-09-28T00:18:29.267Z,1041.19
2016-09-28T00:19:29.261Z,1041.18
2016-09-28T00:20:29.254Z,1041.19
2016-09-28T00:21:29.249Z,1041.19
2016-09-28T00:22:29.243Z,1041.17
2016-09-28T00:23:29.237Z,1041.23
2016-09-28T00:24:29.229Z,1041.27
2016-09-28T00:25:29.222Z,1041.25
2016-09-28T00:26:29.217Z,1041.23
2016-09-28T00:27:29.210Z,1041.24
2016-09-28T00:28:29.205Z,1041.19
2016-09-28T00:29:29.198Z,1041.2
2016-09-28T00:30:29.191Z,1041.18
2016-09-28T00:31:29.185Z,1041.16
2016-09-28T00:32:29.177Z,1041.2
2016-09-28T00:33:29.173Z,1041.23
2016-09-28T00:34:29.165Z,1041.2
2016-09-28T00:35:29.159Z,1041.2
2016-09-28T00:36:29.153Z,1041.16
2016-09-28T00:37:29.147Z,1041.17
2016-09-28T00:38:29.141Z,1041.16
2016-09-28T00:39:29.136Z,1041.18
2016-09-28T00:40:29.130Z,1041.22
2016-09-28T00:41:29.122Z,1041.2
2016-09-28T00:42:29.117Z,1041.18
2016-09-28T00:43:29.109Z,1041.22
2016-09-28T00:44:29.101Z,1041.16
2016-09-28T00:45:29.096Z,1041.17
2016-09-28T00:46:29.089Z,1041.13
2016-09-28T00:47:29.085Z,1041.14
2016-09-28T00:48:29.078Z,1041.14
2016-09-28T00:49:29.072Z,1041.15
2016-09-28T00:50:29.064Z,1041.1
2016-09-28T00:51:29.058Z,1041.15
2016-09-28T00:52:29.053Z,1041.17
2016-09-28T00:53:29.051Z,1041.17
2016-09-28T00:54:29.040Z,1041.14
2016-09-28T00:55:29.031Z,1041.15
2016-09-28T00:56:29.027Z,1041.15
2016-09-28T00:57:29.021Z,1041.18
2016-09-28T00:58:29.014Z,1041.21
2016-09-28T00:59:29.006Z,1041.25
2016-09-28T01:00:29.000Z,1041.25
2016-09-28T01:01:28.995Z,1041.27
2016-09-28T01:02:28.986Z,1041.28
2016-09-28T01:03:30.355Z,1041.27
2016-09-28T01:04:29.427Z,1041.29
2016-09-28T01:05:28.968Z,1041.28
2016-09-28T01:06:28.961Z,1041.3
2016-09-28T01:07:28.956Z,1041.33
2016-09-28T01:08:29.432Z,1041.32
2016-09-28T01:09:28.942Z,1041.35
2016-09-28T01:10:28.935Z,1041.3
2016-09-28T01:11:28.937Z,1041.31
2016-09-28T01:12:28.922Z,1041.28
2016-09-28T01:13:28.914Z,1041.29
2016-09-28T01:14:30.219Z,1041.29
2016-09-28T01:15:29.601Z,1041.26
2016-09-28T01:16:28.896Z,1041.27
2016-09-28T01:17:28.887Z,1041.24
2016-09-28T01:18:28.881Z,1041.21
2016-09-28T01:19:28.877Z,1041.2
2016-09-28T01:20:28.867Z,1041.21
2016-09-28T01:21:28.863Z,1041.24
2016-09-28T01:22:28.855Z,1041.27
2016-09-28T01:23:28.847Z,1041.28
2016-09-28T01:24:28.841Z,1041.28
2016-09-28T01:25:28.836Z,1041.29
2016-09-28T01:26:28.827Z,1041.37
2016-09-28T01:27:28.820Z,1041.32
2016-09-28T01:28:28.816Z,1041.3
2016-09-28T01:29:28.809Z,1041.33
2016-09-28T01:30:28.801Z,1041.35
2016-09-28T01:31:28.796Z,1041.36
2016-09-28T01:32:28.788Z,1041.35
2016-09-28T01:33:28.781Z,1041.39
2016-09-28T01:34:28.780Z,1041.4
2016-09-28T01:35:28.770Z,1041.4
2016-09-28T01:36:28.763Z,1041.38
2016-09-28T01:37:28.755Z,1041.38
2016-09-28T01:38:28.747Z,1041.36
2016-09-28T01:39:28.741Z,1041.36
2016-09-28T01:40:28.737Z,1041.35
2016-09-28T01:41:28.731Z,1041.31
2016-09-28T01:42:28.721Z,1041.27
2016-09-28T01:43:28.722Z,1041.28
2016-09-28T01:44:28.710Z,1041.29
2016-09-28T01:45:28.703Z,1041.27
2016-09-28T01:46:28.697Z,1041.22
2016-09-28T01:47:28.689Z,1041.22
2016-09-28T01:48:28.683Z,1041.24
2016-09-28T01:49:28.675Z,1041.2
2016-09-28T01:50:28.674Z,1041.21
2016-09-28T01:51:28.664Z,1041.2
2016-09-28T01:52:28.658Z,1041.17
2016-09-28T01:53:28.653Z,1041.17
2016-09-28T01:54:28.642Z,1041.17
2016-09-28T01:55:28.637Z,1041.13
2016-09-28T01:56:28.629Z,1041.12
2016-09-28T01:57:28.624Z,1041.06
2016-09-28T01:58:28.616Z,1041.04
2016-09-28T01:59:28.608Z,1041.04
2016-09-28T02:00:28.600Z,1041.02
2016-09-28T02:01:28.596Z,1040.97
2016-09-28T02:02:28.590Z,1041.02
2016-09-28T02:03:28.580Z,1040.94
2016-09-28T02:04:28.573Z,1040.88
2016-09-28T02:05:28.571Z,1040.88
2016-09-28T02:06:28.563Z,1040.87
2016-09-28T02:07:28.554Z,1040.92
2016-09-28T02:08:28.549Z,1040.9
2016-09-28T02:09:28.542Z,1040.9
2016-09-28T02:10:28.536Z,1040.9
2016-09-28T02:11:28.525Z,1040.9
2016-09-28T02:12:28.520Z,1040.88
2016-09-28T02:13:28.516Z,1040.93
2016-09-28T02:14:28.508Z,1040.96
2016-09-28T02:15:28.501Z,1040.96
2016-09-28T02:16:28.492Z,1040.95
2016-09-28T02:17:28.489Z,1040.96
2016-09-28T02:18:28.478Z,1040.97
2016-09-28T02:19:28.474Z,1040.97
2016-09-28T02:20:28.465Z,1040.94
2016-09-28T02:21:28.684Z,1040.92
2016-09-28T02:22:28.453Z,1040.92
2016-09-28T02:23:29.720Z,1040.93
2016-09-28T02:24:28.440Z,1040.93
2016-09-28T02:25:28.432Z,1040.95
2016-09-28T02:26:28.425Z,1040.92
2016-09-28T02:27:28.420Z,1040.94
2016-09-28T02:28:28.519Z,1040.92
2016-09-28T02:29:28.405Z,1040.9
2016-09-28T02:30:28.397Z,1040.91
2016-09-28T02:31:28.393Z,1040.89
2016-09-28T02:32:28.388Z,1040.92
2016-09-28T02:33:28.378Z,1040.92
2016-09-28T02:34:28.369Z,1040.96
2016-09-28T02:35:28.479Z,1040.96
2016-09-28T02:36:28.356Z,1040.98
2016-09-28T02:37:28.350Z,1040.96
2016-09-28T02:38:28.342Z,1040.99
2016-09-28T02:39:28.338Z,1041.03
2016-09-28T02:40:28.328Z,1041.06
2016-09-28T02:41:28.322Z,1041.05
2016-09-28T02:42:28.316Z,1041.05
2016-09-28T02:43:28.311Z,1041.02
2016-09-28T02:44:28.303Z,1041.03
2016-09-28T02:45:28.297Z,1041.03
2016-09-28T02:46:28.288Z,1041.11
2016-09-28T02:47:28.282Z,1041.13
2016-09-28T02:48:28.273Z,1041.18
2016-09-28T02:49:28.268Z,1041.19
2016-09-28T02:50:28.262Z,1041.16
2016-09-28T02:51:28.255Z,1041.12
2016-09-28T02:52:28.248Z,1041.1
2016-09-28T02:53:28.240Z,1041.08
2016-09-28T02:54:28.235Z,1041.08
2016-09-28T02:55:28.225Z,1041.06
2016-09-28T02:56:28.219Z,1041.04
2016-09-28T02:57:28.214Z,1041.01
2016-09-28T02:58:28.204Z,1040.98
2016-09-28T02:59:28.203Z,1040.95
2016-09-28T03:00:28.192Z,1040.92
2016-09-28T03:01:28.185Z,1040.92
2016-09-28T03:02:28.177Z,1040.86
2016-09-28T03:03:28.170Z,1040.85
2016-09-28T03:04:28.163Z,1040.85
2016-09-28T03:05:28.157Z,1040.88
2016-09-28T03:06:28.150Z,1040.94
2016-09-28T03:07:28.146Z,1040.95
2016-09-28T03:08:28.136Z,1041
2016-09-28T03:09:28.130Z,1040.94
2016-09-28T03:10:28.124Z,1040.93
2016-09-28T03:11:28.117Z,1040.85
2016-09-28T03:12:28.111Z,1040.83
2016-09-28T03:13:28.101Z,1040.79
2016-09-28T03:14:28.095Z,1040.84
2016-09-28T03:15:28.090Z,1040.79
2016-09-28T03:16:28.082Z,1040.77
2016-09-28T03:17:28.077Z,1040.76
2016-09-28T03:18:28.068Z,1040.75
2016-09-28T03:19:28.061Z,1040.7
2016-09-28T03:20:28.054Z,1040.71
2016-09-28T03:21:28.049Z,1040.7
2016-09-28T03:22:28.046Z,1040.76
2016-09-28T03:23:28.036Z,1040.8
2016-09-28T03:24:28.028Z,1040.77
2016-09-28T03:25:28.020Z,1040.8
2016-09-28T03:26:28.013Z,1040.78
2016-09-28T03:27:28.007Z,1040.73
2016-09-28T03:28:28.001Z,1040.69
2016-09-28T03:29:27.992Z,1040.63
2016-09-28T03:30:27.986Z,1040.59
2016-09-28T03:31:27.979Z,1040.59
2016-09-28T03:32:27.972Z,1040.59
2016-09-28T03:33:27.968Z,1040.58
2016-09-28T03:34:27.961Z,1040.57
2016-09-28T03:35:27.954Z,1040.59
2016-09-28T03:36:27.946Z,1040.57
2016-09-28T03:37:27.937Z,1040.61
2016-09-28T03:38:27.932Z,1040.61
2016-09-28T03:39:27.926Z,1040.56
2016-09-28T03:40:27.924Z,1040.58
2016-09-28T03:41:28.263Z,1040.57
2016-09-28T03:42:27.903Z,1040.62
2016-09-28T03:43:27.896Z,1040.56
2016-09-28T03:44:27.891Z,1040.55
2016-09-28T03:45:27.882Z,1040.55
2016-09-28T03:46:27.878Z,1040.52
2016-09-28T03:47:28.719Z,1040.52
2016-09-28T03:48:29.945Z,1040.51
2016-09-28T03:49:27.857Z,1040.54
2016-09-28T03:50:28.298Z,1040.51
2016-09-28T03:51:28.694Z,1040.46
2016-09-28T03:52:27.835Z,1040.43
2016-09-28T03:53:27.969Z,1040.41
2016-09-28T03:54:27.823Z,1040.39
2016-09-28T03:55:27.815Z,1040.36
2016-09-28T03:56:27.807Z,1040.35
2016-09-28T03:57:27.800Z,1040.37
2016-09-28T03:58:27.792Z,1040.38
2016-09-28T03:59:27.787Z,1040.44
2016-09-28T04:00:27.781Z,1040.48
2016-09-28T04:01:27.772Z,1040.47
2016-09-28T04:02:27.768Z,1040.44
2016-09-28T04:03:27.761Z,1040.39
2016-09-28T04:04:27.753Z,1040.43
2016-09-28T04:05:27.745Z,1040.35
2016-09-28T04:06:27.740Z,1040.32
2016-09-28T04:07:27.733Z,1040.29
2016-09-28T04:08:27.723Z,1040.29
2016-09-28T04:09:27.717Z,1040.28
2016-09-28T04:10:27.710Z,1040.24
2016-09-28T04:11:27.702Z,1040.25
2016-09-28T04:12:27.701Z,1040.24
2016-09-28T04:13:27.689Z,1040.26
2016-09-28T04:14:27.684Z,1040.31
2016-09-28T04:15:27.676Z,1040.3
2016-09-28T04:16:27.918Z,1040.33
2016-09-28T04:17:27.673Z,1040.38
2016-09-28T04:18:27.654Z,1040.4
2016-09-28T04:19:27.649Z,1040.43
2016-09-28T04:20:27.640Z,1040.42
2016-09-28T04:21:27.883Z,1040.44
2016-09-28T04:22:27.625Z,1040.44
2016-09-28T04:23:27.634Z,1040.46
2016-09-28T04:24:27.614Z,1040.47
2016-09-28T04:25:27.608Z,1040.45
2016-09-28T04:26:27.851Z,1040.46
2016-09-28T04:27:27.597Z,1040.45
2016-09-28T04:28:27.588Z,1040.43
2016-09-28T04:29:27.581Z,1040.42
2016-09-28T04:30:27.571Z,1040.34
2016-09-28T04:31:27.865Z,1040.3
2016-09-28T04:32:27.558Z,1040.26
2016-09-28T04:33:27.550Z,1040.17
2016-09-28T04:34:27.545Z,1040.17
2016-09-28T04:35:27.540Z,1040.15
2016-09-28T04:36:27.533Z,1040.08
2016-09-28T04:37:27.524Z,1040.07
2016-09-28T04:38:27.516Z,1040.02
2016-09-28T04:39:27.509Z,1039.94
2016-09-28T04:40:27.504Z,1039.93
2016-09-28T04:41:27.498Z,1039.93
2016-09-28T04:42:27.490Z,1039.96
2016-09-28T04:43:27.483Z,1039.95
2016-09-28T04:44:27.476Z,1039.99
2016-09-28T04:45:27.477Z,1040.03
2016-09-28T04:46:27.463Z,1039.99
2016-09-28T04:47:27.458Z,1040
2016-09-28T04:48:27.450Z,1039.92
2016-09-28T04:49:27.443Z,1039.93
2016-09-28T04:50:27.438Z,1039.92
2016-09-28T04:51:27.429Z,1039.87
2016-09-28T04:52:27.425Z,1039.83
2016-09-28T04:53:27.418Z,1039.82
2016-09-28T04:54:27.410Z,1039.82
2016-09-28T04:55:27.403Z,1039.79
2016-09-28T04:56:27.398Z,1039.78
2016-09-28T04:57:27.393Z,1039.79
2016-09-28T04:58:27.385Z,1039.79
2016-09-28T04:59:27.377Z,1039.75
2016-09-28T05:00:27.370Z,1039.74
2016-09-28T05:01:27.363Z,1039.74
2016-09-28T05:02:27.354Z,1039.72
2016-09-28T05:03:27.348Z,1039.66
2016-09-28T05:04:27.343Z,1039.68
2016-09-28T05:05:27.839Z,1039.65
2016-09-28T05:07:27.322Z,1039.59
2016-09-28T05:08:28.069Z,1039.58
2016-09-28T05:09:27.309Z,1039.54
2016-09-28T05:10:27.302Z,1039.48
2016-09-28T05:11:27.297Z,1039.41
2016-09-28T05:12:27.571Z,1039.42
2016-09-28T05:13:27.281Z,1039.37
2016-09-28T05:14:27.276Z,1039.34
2016-09-28T05:15:27.271Z,1039.31
2016-09-28T05:16:27.262Z,1039.28
2016-09-28T05:17:27.255Z,1039.27
2016-09-28T05:18:27.250Z,1039.27
2016-09-28T05:19:27.692Z,1039.24
2016-09-28T05:20:27.235Z,1039.19
2016-09-28T05:21:27.429Z,1039.18
2016-09-28T05:22:27.223Z,1039.19
2016-09-28T05:23:27.215Z,1039.14
2016-09-28T05:24:27.210Z,1039.07
2016-09-28T05:25:27.204Z,1039.05
2016-09-28T05:26:27.195Z,1039.03
2016-09-28T05:27:27.191Z,1039.02
2016-09-28T05:28:27.182Z,1038.98
2016-09-28T05:29:27.178Z,1038.94
2016-09-28T05:30:27.171Z,1038.95
2016-09-28T05:31:27.165Z,1038.86
2016-09-28T05:32:27.158Z,1038.83
2016-09-28T05:33:27.153Z,1038.82
2016-09-28T05:34:27.145Z,1038.82
2016-09-28T05:35:27.137Z,1038.78
2016-09-28T05:36:27.131Z,1038.8
2016-09-28T05:37:27.127Z,1038.75
2016-09-28T05:38:27.120Z,1038.73
2016-09-28T05:39:27.115Z,1038.61
2016-09-28T05:40:27.109Z,1038.56
2016-09-28T05:41:27.101Z,1038.39
2016-09-28T05:42:27.095Z,1038.34
2016-09-28T05:43:27.088Z,1038.33
2016-09-28T05:44:27.082Z,1038.31
2016-09-28T05:45:27.079Z,1038.33
2016-09-28T05:46:27.072Z,1038.32
2016-09-28T05:47:27.064Z,1038.36
2016-09-28T05:48:27.059Z,1038.35
2016-09-28T05:49:27.053Z,1038.34
2016-09-28T05:50:27.047Z,1038.26
2016-09-28T05:51:27.043Z,1038.2
2016-09-28T05:52:27.036Z,1038.1
2016-09-28T05:53:27.033Z,1038.08
2016-09-28T05:54:27.024Z,1037.95
2016-09-28T05:55:27.024Z,1037.9
2016-09-28T05:56:27.013Z,1037.83
2016-09-28T05:57:27.008Z,1037.79
2016-09-28T05:58:27.002Z,1037.69
2016-09-28T05:59:26.999Z,1037.61
2016-09-28T06:00:26.994Z,1037.33
2016-09-28T06:01:26.988Z,1037.14
2016-09-28T06:02:26.983Z,1037.01
2016-09-28T06:03:26.977Z,1036.96
2016-09-28T06:04:26.971Z,1036.97
2016-09-28T06:05:26.968Z,1036.91
2016-09-28T06:06:26.963Z,1036.9
2016-09-28T06:07:26.956Z,1036.9
2016-09-28T06:08:26.952Z,1036.85
2016-09-28T06:09:26.948Z,1036.83
2016-09-28T06:10:26.942Z,1036.81
2016-09-28T06:11:26.938Z,1036.78
2016-09-28T06:12:26.935Z,1036.77
2016-09-28T06:13:26.928Z,1036.76
2016-09-28T06:14:26.935Z,1036.8
2016-09-28T06:15:26.919Z,1036.76
2016-09-28T06:16:26.917Z,1036.74
2016-09-28T06:17:27.297Z,1036.73
2016-09-28T06:18:26.906Z,1036.69
2016-09-28T06:19:27.335Z,1036.66
2016-09-28T06:20:26.898Z,1036.63
2016-09-28T06:21:26.895Z,1036.66
2016-09-28T06:22:26.895Z,1036.63
2016-09-28T06:23:26.883Z,1036.57
2016-09-28T06:25:26.876Z,1036.45
2016-09-28T06:26:27.696Z,1036.41
2016-09-28T06:27:26.959Z,1036.45
2016-09-28T06:28:27.922Z,1036.46
2016-09-28T06:29:26.862Z,1036.46
2016-09-28T06:30:26.856Z,1036.38
2016-09-28T06:31:27.018Z,1036.37
2016-09-28T06:32:26.850Z,1036.31
2016-09-28T06:33:26.846Z,1036.3
2016-09-28T06:34:26.839Z,1036.29
2016-09-28T06:36:26.834Z,1036.18
2016-09-28T06:37:26.830Z,1036.18
2016-09-28T06:38:26.824Z,1036.16
2016-09-28T06:39:26.969Z,1036.14
2016-09-28T06:40:26.823Z,1036.1
2016-09-28T06:41:26.812Z,1036.15
2016-09-28T06:42:26.810Z,1036.18
2016-09-28T06:43:26.804Z,1036.15
2016-09-28T06:44:26.802Z,1036.14
2016-09-28T06:45:26.797Z,1036.16
2016-09-28T06:46:26.796Z,1036.08
2016-09-28T06:47:26.791Z,1036.03
2016-09-28T06:48:26.785Z,1035.94
2016-09-28T06:49:26.782Z,1035.83
2016-09-28T06:50:26.780Z,1035.76
2016-09-28T06:51:26.776Z,1035.6
2016-09-28T06:52:26.772Z,1035.53
2016-09-28T06:53:26.769Z,1035.44
2016-09-28T06:54:26.764Z,1035.31
2016-09-28T06:55:26.763Z,1035.15
2016-09-28T06:56:26.758Z,1035.12
2016-09-28T06:57:26.754Z,1035.09
2016-09-28T06:58:26.752Z,1035.07
2016-09-28T06:59:26.746Z,1035.09
2016-09-28T07:00:26.743Z,1035.19
2016-09-28T07:01:26.741Z,1035.28
2016-09-28T07:02:26.737Z,1035.22
2016-09-28T07:03:26.733Z,1035.22
2016-09-28T07:04:26.729Z,1035.18
2016-09-28T07:05:26.724Z,1035.11
2016-09-28T07:06:26.723Z,1035.13
2016-09-28T07:07:26.717Z,1035.12
2016-09-28T07:08:26.715Z,1035.12
2016-09-28T07:09:26.712Z,1035.07
2016-09-28T07:10:26.706Z,1035.11
2016-09-28T07:11:26.703Z,1035.11
2016-09-28T07:12:26.700Z,1035.1
2016-09-28T07:13:26.697Z,1035.06
2016-09-28T07:14:26.693Z,1035.05
2016-09-28T07:15:26.690Z,1035
2016-09-28T07:16:26.687Z,1034.97
2016-09-28T07:17:26.684Z,1034.92
2016-09-28T07:18:26.682Z,1034.87
2016-09-28T07:19:26.678Z,1034.87
2016-09-28T07:20:26.680Z,1034.88
2016-09-28T07:21:26.677Z,1034.88
2016-09-28T07:22:26.669Z,1034.92
2016-09-28T07:23:26.665Z,1034.88
2016-09-28T07:24:26.664Z,1034.83
2016-09-28T07:25:26.657Z,1034.82
2016-09-28T07:26:26.656Z,1034.82
2016-09-28T07:27:26.652Z,1034.82
2016-09-28T07:28:26.649Z,1034.82
2016-09-28T07:29:26.645Z,1034.84
2016-09-28T07:30:26.644Z,1034.76
2016-09-28T07:31:26.642Z,1034.79
2016-09-28T07:32:26.646Z,1034.74
2016-09-28T07:33:26.633Z,1034.73
2016-09-28T07:34:27.688Z,1034.7
2016-09-28T07:35:26.630Z,1034.7
2016-09-28T07:36:26.627Z,1034.65
2016-09-28T07:37:26.622Z,1034.63
2016-09-28T07:38:26.621Z,1034.52
2016-09-28T07:39:26.617Z,1034.51
2016-09-28T07:40:26.616Z,1034.46
2016-09-28T07:41:26.611Z,1034.46
2016-09-28T07:42:27.295Z,1034.4
2016-09-28T07:44:26.602Z,1034.31
2016-09-28T07:45:26.604Z,1034.19
2016-09-28T07:46:27.174Z,1034.12
2016-09-28T07:47:26.746Z,1034.01
2016-09-28T07:48:26.593Z,1034
2016-09-28T07:49:26.592Z,1034.02
2016-09-28T07:50:26.591Z,1034.01
2016-09-28T07:51:26.588Z,1033.98
2016-09-28T07:54:26.582Z,1033.85
2016-09-28T07:55:26.728Z,1033.76
2016-09-28T07:56:26.577Z,1033.72
2016-09-28T07:57:26.577Z,1033.8
2016-09-28T07:58:26.824Z,1033.77
2016-09-28T07:59:26.571Z,1033.73
2016-09-28T08:00:26.570Z,1033.68
2016-09-28T08:01:26.573Z,1033.63
2016-09-28T08:02:26.572Z,1033.53
2016-09-28T08:03:26.815Z,1033.46
2016-09-28T08:04:26.563Z,1033.44
2016-09-28T08:05:26.569Z,1033.43
2016-09-28T08:06:26.560Z,1033.32
2016-09-28T08:07:26.557Z,1033.22
2016-09-28T08:08:26.808Z,1033.11
2016-09-28T08:09:26.555Z,1033.04
2016-09-28T08:10:26.556Z,1032.97
2016-09-28T08:11:26.554Z,1032.96
2016-09-28T08:12:26.553Z,1032.89
2016-09-28T08:13:26.551Z,1032.93
2016-09-28T08:14:26.551Z,1032.89
2016-09-28T08:15:26.549Z,1032.91
2016-09-28T08:16:26.549Z,1032.9
2016-09-28T08:17:26.548Z,1032.98
2016-09-28T08:18:26.548Z,1032.99
2016-09-28T08:19:26.548Z,1032.94
2016-09-28T08:20:26.546Z,1032.76
2016-09-28T08:21:26.545Z,1032.69
2016-09-28T08:22:26.543Z,1032.55
2016-09-28T08:23:26.544Z,1032.44
2016-09-28T08:24:26.543Z,1032.42
2016-09-28T08:25:26.544Z,1032.33
2016-09-28T08:26:26.541Z,1032.4
2016-09-28T08:27:26.549Z,1032.39
2016-09-28T08:28:26.541Z,1032.43
2016-09-28T08:29:26.543Z,1032.42
2016-09-28T08:30:26.543Z,1032.4
2016-09-28T08:31:26.543Z,1032.45
2016-09-28T08:32:26.543Z,1032.42
2016-09-28T08:33:26.542Z,1032.34
2016-09-28T08:34:26.543Z,1032.19
2016-09-28T08:35:26.541Z,1032.14
2016-09-28T08:36:26.544Z,1032.06
2016-09-28T08:37:26.545Z,1032.05
2016-09-28T08:38:26.543Z,1031.95
2016-09-28T08:39:26.546Z,1031.91
2016-09-28T08:40:26.547Z,1031.89
2016-09-28T08:41:26.546Z,1031.84
2016-09-28T08:42:26.547Z,1031.87
2016-09-28T08:43:26.544Z,1031.86
2016-09-28T08:44:26.548Z,1031.79
2016-09-28T08:45:26.547Z,1031.81
2016-09-28T08:46:26.547Z,1031.75
2016-09-28T08:47:26.550Z,1031.75
2016-09-28T08:48:26.549Z,1031.71
2016-09-28T08:49:26.552Z,1031.66
2016-09-28T08:50:26.552Z,1031.71
2016-09-28T08:51:26.554Z,1031.69
2016-09-28T08:52:26.553Z,1031.75
2016-09-28T08:53:26.555Z,1031.74
2016-09-28T08:54:26.557Z,1031.72
2016-09-28T08:55:26.559Z,1031.66
2016-09-28T08:56:26.558Z,1031.7
2016-09-28T08:57:26.558Z,1031.63
2016-09-28T08:58:26.559Z,1031.66
2016-09-28T08:59:26.562Z,1031.69
2016-09-28T09:00:26.816Z,1031.66
2016-09-28T09:01:26.563Z,1031.64
2016-09-28T09:02:26.565Z,1031.64
2016-09-28T09:03:26.568Z,1031.61
2016-09-28T09:04:26.569Z,1031.62
2016-09-28T09:05:26.570Z,1031.58
2016-09-28T09:06:26.570Z,1031.52
2016-09-28T09:07:26.572Z,1031.44
2016-09-28T09:08:26.574Z,1031.46
2016-09-28T09:09:26.576Z,1031.48
2016-09-28T09:10:26.575Z,1031.4
2016-09-28T09:11:26.576Z,1031.43
2016-09-28T09:12:26.578Z,1031.42
2016-09-28T09:13:27.330Z,1031.39
2016-09-28T09:14:26.781Z,1031.33
2016-09-28T09:15:26.582Z,1031.22
2016-09-28T09:16:26.583Z,1031.16
2016-09-28T09:17:26.586Z,1031.11
2016-09-28T09:18:26.887Z,1031.1
2016-09-28T09:19:26.587Z,1031.07
2016-09-28T09:20:26.591Z,1031
2016-09-28T09:21:26.591Z,1031.03
2016-09-28T09:22:26.591Z,1031.06
2016-09-28T09:23:26.594Z,1031.04
2016-09-28T09:24:26.596Z,1030.92
2016-09-28T09:25:26.597Z,1030.96
2016-09-28T09:26:26.601Z,1031.03
2016-09-28T09:27:26.601Z,1031
2016-09-28T09:28:26.604Z,1030.96
2016-09-28T09:29:26.604Z,1030.95
2016-09-28T09:30:26.606Z,1030.89
2016-09-28T09:31:26.608Z,1030.86
2016-09-28T09:32:26.612Z,1030.71
2016-09-28T09:33:26.614Z,1030.63
2016-09-28T09:34:26.614Z,1030.58
2016-09-28T09:35:26.616Z,1030.59
2016-09-28T09:36:26.626Z,1030.49
2016-09-28T09:37:26.623Z,1030.5
2016-09-28T09:38:26.623Z,1030.59
2016-09-28T09:39:26.628Z,1030.68
2016-09-28T09:40:26.628Z,1030.76
2016-09-28T09:41:26.629Z,1030.78
2016-09-28T09:42:26.634Z,1030.91
2016-09-28T09:43:26.636Z,1030.92
2016-09-28T09:44:26.635Z,1030.83
2016-09-28T09:45:26.640Z,1030.54
2016-09-28T09:46:26.642Z,1030.39
2016-09-28T09:47:26.642Z,1030.28
2016-09-28T09:48:26.645Z,1030.08
2016-09-28T09:49:26.646Z,1029.89
2016-09-28T09:50:26.648Z,1029.74
2016-09-28T09:51:26.655Z,1029.58
2016-09-28T09:52:26.652Z,1029.61
2016-09-28T09:53:26.658Z,1029.45
2016-09-28T09:54:26.660Z,1029.38
2016-09-28T09:55:26.662Z,1029.41
2016-09-28T09:56:26.665Z,1029.55
2016-09-28T09:57:26.668Z,1029.78
2016-09-28T09:58:26.670Z,1029.96
2016-09-28T09:59:26.671Z,1030.15
2016-09-28T10:00:26.674Z,1030.3
2016-09-28T10:01:26.678Z,1030.45
2016-09-28T10:02:26.680Z,1030.43
2016-09-28T10:03:26.685Z,1030.52
2016-09-28T10:04:26.687Z,1030.45
2016-09-28T10:05:26.691Z,1030.32
2016-09-28T10:06:26.692Z,1030.35
2016-09-28T10:07:26.695Z,1030.31
2016-09-28T10:08:26.700Z,1030.36
2016-09-28T10:09:27.376Z,1030.22
2016-09-28T10:10:26.702Z,1030.14
2016-09-28T10:11:26.707Z,1030.1
2016-09-28T10:12:26.711Z,1030.31
2016-09-28T10:13:26.711Z,1030.28
2016-09-28T10:14:26.713Z,1030.4
2016-09-28T10:15:26.731Z,1030.39
2016-09-28T10:16:26.721Z,1030.4
2016-09-28T10:17:26.723Z,1030.43
2016-09-28T10:18:28.103Z,1030.44
2016-09-28T10:19:26.728Z,1030.47
2016-09-28T10:21:27.277Z,1030.3
2016-09-28T10:22:26.735Z,1030.28
2016-09-28T10:23:27.343Z,1030.12
2016-09-28T10:24:26.742Z,1030.13
2016-09-28T10:25:26.746Z,1030.22
2016-09-28T10:27:26.753Z,1030.58
2016-09-28T10:28:28.007Z,1030.77
2016-09-28T10:29:27.455Z,1030.71
2016-09-28T10:30:26.759Z,1030.68
2016-09-28T10:31:27.260Z,1030.83
2016-09-28T10:32:26.764Z,1030.9
2016-09-28T10:33:26.765Z,1030.82
2016-09-28T10:34:26.768Z,1030.92
2016-09-28T10:35:26.768Z,1030.84
2016-09-28T10:36:26.772Z,1030.87
2016-09-28T10:37:26.775Z,1030.92
2016-09-28T10:38:26.776Z,1030.95
2016-09-28T10:39:26.777Z,1030.96
2016-09-28T10:40:26.781Z,1031.03
2016-09-28T10:41:26.782Z,1031.06
2016-09-28T10:42:26.785Z,1031.1
2016-09-28T10:43:26.784Z,1031.05
2016-09-28T10:44:26.788Z,1030.99
2016-09-28T10:45:26.789Z,1030.96
2016-09-28T10:46:26.790Z,1030.88
2016-09-28T10:47:26.794Z,1030.79
2016-09-28T10:48:26.794Z,1030.77
2016-09-28T10:49:26.796Z,1030.74
2016-09-28T10:50:26.797Z,1030.71
2016-09-28T10:51:26.799Z,1030.69
2016-09-28T10:52:26.801Z,1030.57
2016-09-28T10:53:26.804Z,1030.52
2016-09-28T10:54:26.803Z,1030.5
2016-09-28T10:55:26.808Z,1030.58
2016-09-28T10:56:26.809Z,1030.59
2016-09-28T10:57:26.809Z,1030.62
2016-09-28T10:58:26.813Z,1030.62
2016-09-28T10:59:26.815Z,1030.66
2016-09-28T11:00:26.817Z,1030.82
2016-09-28T11:01:26.818Z,1030.85
2016-09-28T11:02:26.819Z,1030.8
2016-09-28T11:03:26.821Z,1030.86
2016-09-28T11:04:26.821Z,1030.97
2016-09-28T11:05:26.822Z,1031.01
2016-09-28T11:06:26.827Z,1030.99
2016-09-28T11:07:26.826Z,1031.07
2016-09-28T11:08:26.828Z,1031.1
2016-09-28T11:09:26.828Z,1031.1
2016-09-28T11:10:26.832Z,1031.07
2016-09-28T11:11:26.835Z,1031.08
2016-09-28T11:12:26.834Z,1031.13
2016-09-28T11:13:26.839Z,1030.96
2016-09-28T11:14:26.839Z,1030.93
2016-09-28T11:15:26.838Z,1030.99
2016-09-28T11:16:26.841Z,1031.05
2016-09-28T11:17:26.845Z,1031.06
2016-09-28T11:18:26.845Z,1031.03
2016-09-28T11:19:26.847Z,1031.03
2016-09-28T11:20:26.848Z,1031.1
2016-09-28T11:21:26.850Z,1031.07
2016-09-28T11:22:26.849Z,1031.01
2016-09-28T11:23:26.850Z,1030.99
2016-09-28T11:24:26.852Z,1031.03
2016-09-28T11:25:26.856Z,1031.07
2016-09-28T11:26:26.857Z,1031.08
2016-09-28T11:27:26.858Z,1031.16
2016-09-28T11:28:26.859Z,1031.07
2016-09-28T11:29:26.859Z,1031.02
2016-09-28T11:30:26.862Z,1030.93
2016-09-28T11:31:26.861Z,1030.94
2016-09-28T11:32:26.864Z,1030.96
2016-09-28T11:33:26.866Z,1030.85
2016-09-28T11:34:26.865Z,1030.81
2016-09-28T11:36:26.871Z,1030.68
2016-09-28T11:37:27.894Z,1030.44
2016-09-28T11:39:26.875Z,1030.17
2016-09-28T11:40:26.876Z,1029.87
2016-09-28T11:41:27.052Z,1029.66
2016-09-28T11:42:26.878Z,1029.55
2016-09-28T11:43:26.881Z,1029.39
2016-09-28T11:44:26.884Z,1029.35
2016-09-28T11:46:26.888Z,1029.25
2016-09-28T11:47:26.892Z,1029.34
2016-09-28T11:48:26.892Z,1029.37
2016-09-28T11:49:26.895Z,1029.42
2016-09-28T11:50:27.050Z,1029.43
2016-09-28T11:51:26.903Z,1029.42
2016-09-28T11:52:26.906Z,1029.43
2016-09-28T11:53:26.908Z,1029.37
2016-09-28T11:54:26.913Z,1029.34
2016-09-28T11:55:26.914Z,1029.42
2016-09-28T11:56:26.918Z,1029.36
2016-09-28T11:57:26.922Z,1029.29
2016-09-28T11:58:26.927Z,1029.38
2016-09-28T11:59:26.929Z,1029.25
2016-09-28T12:00:26.931Z,1029.18
2016-09-28T12:01:26.941Z,1029.19
2016-09-28T12:02:26.940Z,1029.15
2016-09-28T12:03:27.145Z,1029.19
2016-09-28T12:04:26.945Z,1029.25
2016-09-28T12:05:26.949Z,1029.06
2016-09-28T12:06:26.954Z,1029.01
2016-09-28T12:07:26.957Z,1028.93
2016-09-28T12:08:26.961Z,1028.85
2016-09-28T12:09:26.966Z,1028.86
2016-09-28T12:10:26.968Z,1028.8
2016-09-28T12:11:26.973Z,1028.86
2016-09-28T12:12:26.979Z,1028.86
2016-09-28T12:13:26.982Z,1028.92
2016-09-28T12:14:26.986Z,1028.97
2016-09-28T12:15:26.990Z,1029.13
2016-09-28T12:16:26.992Z,1029.13
2016-09-28T12:17:26.998Z,1029.15
2016-09-28T12:18:27.009Z,1029.22
2016-09-28T12:19:27.005Z,1029.19